VCBIVRMM

Guest
Details From VCBI - BANDARANAIKE INTL COLOMBO
To VRMM - MALE INTL
Flight Number -
Tags decoded
Created
Modified
Stats Distance 495 nm / 916 km
Max Altitude 0 ft / 0 m
Waypoints 5
Social Downloads 3
Likes 0
Share VATSIM

Download

Looking for another format? Having issues loading an existing format? Contact us
Advertisement - Login to hide

Notes

Requested: VCBI SUPSA GOKAN ATISA RAXON VRMM

Route

VCBI SUPSA ATISA RAXON VRMM

ID Type Via Altitude Latitude Longitude Leg Dist Tot Dist Heading (true) Name
O VCBI APT - 0 ft / 0 m 7.18075˚ 79.88412˚ - 0 nm - BANDARANAIKE INTL COLOMBO
SUPSA FIX - 0 ft / 0 m 6.78367˚ 79.05223˚ 55 nm 55 nm 244° / 244° -
ATISA FIX - 0 ft / 0 m 3.35611˚ 73.52722˚ 389 nm 444 nm 238° / 238° -
RAXON FIX - 0 ft / 0 m 3.94217˚ 73.52967˚ 35 nm 479 nm 0° / 0° -
O VRMM APT - 0 ft / 0 m 4.19183˚ 73.52913˚ 14 nm 494 nm 360° / 360° MALE INTL

Altitude Profile

Advertisement - Login to hide

Weather


0- 5 10 15 20 25 30 35+ Temperature / ° C

Clouds and Precipitation
Forecast for 2017-12-12 00:00 UTC. Updated 2 hours ago

Ground ~20,000 ft ~40,000 ft Winds

VCBI

Details ICAO VCBI (CMB)
Name BANDARANAIKE INTL COLOMBO
Region Sri Lanka
Timezone Asia/Colombo (UTC+5.5)
Stats Elevation 30 ft / 9 m (AMSL)
Location 7.180754° 79.884118°
Runways 1
Magnetic Variation 2.068° W

METAR

VCBI 120010Z 13003KT 100V160 7000 SCT016 25/23 Q1012 NOSIG

Decode

TAF

Not found

Departure Runways

ID Width Length Bearing (true) Bearing (mag) Surface Threshold Offset Overrun Length
04 148 ft / 45 m 11,018 ft / 3,358 m 37.25° 39.32° Asphalt 0 ft / 0 m 215 ft / 66 m
22 148 ft / 45 m 11,018 ft / 3,358 m 217.25° 219.32° Asphalt 0 ft / 0 m 300 ft / 91 m

VRMM

Details ICAO VRMM (MLE)
Name MALE INTL
Region Maldives
Timezone Indian/Maldives (UTC+5.0)
Stats Elevation 6 ft / 2 m (AMSL)
Location 4.191832° 73.529128°
Runways 1
Magnetic Variation 2.835° W

METAR

VRMM 120000Z 15005KT 9999 FEW019 27/21 Q1012 NOSIG

Decode

TAF

TAF VRMM 112300Z 1200/1306 16006KT 9999 FEW018 TEMPO 1203/1209 FEW019CB

Decode

Destination Runways

ID Width Length Bearing (true) Bearing (mag) Surface Threshold Offset Overrun Length
18 148 ft / 45 m 10,556 ft / 3,218 m 179.06° 181.89° Asphalt 328 ft / 100 m 201 ft / 61 m
36 148 ft / 45 m 10,556 ft / 3,218 m 359.06° 1.89° Asphalt 952 ft / 290 m 238 ft / 73 m

Approach Navaids

Runway Type Ident Frequency Range Bearing (true) Bearing (mag) Slope Elevation
36 Localiser IML 108.70 MHz 18 nm / 33 km 359.58° 2.41° - 5 ft / 2 m (AMSL)
36 Glidescope IML 108.70 MHz 10 nm / 19 km 359.06° 1.89° 3.00° 5 ft / 2 m (AMSL)
36 DME IML 108.70 MHz 18 nm / 33 km - - - 22 ft / 7 m (AMSL)

Popular Alternatives